Hilda, SC (29813)

3:16 PM EDT on September 03, 2015 (GMT -0400)
Heathwood | | Change Station
CLOSE
Current Station
Personal Weather Station
Location: Barnwell, SC
Elevation: 256 ft
Nearby Weather Stations

Elev 256 ft 33.26 °N, 81.33 °W | Updated 10 minutes ago

Clear
Clear
90.9 °F
Feels Like 99 °F
N
3.2
Wind Variable Wind from West

Today
High -- | Low -- °F
--% Chance of Precip.
Yesterday
High -- | Low -- °F
Precip. -- in
7:00 AM 7:48 PM
Waning Gibbous, 67% visible
Pressure 29.92 in
Visibility 10.0 miles
Clouds Few 4200 ft
Heat Index 99 °F
Dew Point 72 °F
Humidity 55%
Rainfall 0.00 in
Snow Depth Not available.
UV 8 out of 12
Pollen 8.60 out of 12
Air Quality Not available.
Flu Activity Not available.
METAR KOGB 031853Z AUTO VRB04KT 10SM FEW042 33/21 A2993 RMK AO2 LTG DSNT SE SLP131 T03280211
Pressure 29.92 in
Visibility 10.0 miles
Clouds Few 4200 ft
Heat Index 99 °F
Dew Point 72 °F
Humidity 55%
Rainfall 0.00 in
Snow Depth Not available.
UV 8 out of 12
Pollen 8.60 out of 12
Air Quality Not available.
Flu Activity Not available.
METAR KOGB 031853Z AUTO VRB04KT 10SM FEW042 33/21 A2993 RMK AO2 LTG DSNT SE SLP131 T03280211

10-Day Weather Forecast

×

Almanac

Astronomy

Sep. 03, 2015 Rise Set
Actual Time
Civil Twilight
Nautical Twilight
Astronomical Twilight
Moon
Length of Visible Light
Length of Day
Tomorrow will be .
, % of the Moon is Illuminated

Today's Extremes

State Highs State Lows

Community

WunderPhotos

Upload Photos

1,852,014 photos uploaded!

WunderBlogs® & News

Nearby

Air Quality

  Air Quality AQ Index Pollutant
Not available.

Snow Depth

Station Depth Elevation

Earthquake Activity

City Distance Mag. Time & Date
Minimum magnitude displayed is 2.5.

Coastal Water Temperatures

Place Temperature

Stations

Nearby Weather Stations

Station Location Temp. Windchill Dew Point Humidity Wind Precip. Elev Updated Type